createdAt,value
2022-08-30T00:01:37.319Z,5.50
2022-08-30T00:07:40.869Z,5.32
2022-08-30T00:13:45.737Z,5.65
2022-08-30T00:19:50.591Z,6.07
2022-08-30T00:25:54.215Z,5.95
2022-08-30T00:31:57.613Z,6.05
2022-08-30T00:38:02.765Z,6.28
2022-08-30T00:44:07.946Z,6.63
2022-08-30T00:50:12.707Z,7.05
2022-08-30T00:56:18.015Z,7.45
2022-08-30T01:02:23.438Z,7.00
2022-08-30T01:08:27.313Z,7.57
2022-08-30T01:14:33.413Z,8.30
2022-08-30T01:20:41.866Z,7.72
2022-08-30T01:26:46.607Z,8.00
2022-08-30T01:32:50.007Z,8.63
2022-08-30T01:38:54.305Z,7.82
2022-08-30T01:44:59.086Z,8.55
2022-08-30T01:51:02.545Z,8.63
2022-08-30T01:57:06.804Z,8.23
2022-08-30T02:03:11.687Z,8.20
2022-08-30T02:09:15.157Z,9.20
2022-08-30T02:15:18.768Z,8.10
2022-08-30T02:21:23.628Z,7.97
2022-08-30T02:27:27.701Z,8.68
2022-08-30T02:33:31.734Z,8.38
2022-08-30T02:39:36.558Z,8.70
2022-08-30T02:45:40.482Z,8.63
2022-08-30T02:51:45.181Z,8.60
2022-08-30T02:57:49.889Z,8.75
2022-08-30T03:03:53.324Z,9.13
2022-08-30T03:09:56.690Z,9.35
2022-08-30T03:16:01.568Z,8.85
2022-08-30T03:22:05.532Z,8.57
2022-08-30T03:28:09.150Z,9.20
2022-08-30T03:34:13.913Z,8.68
2022-08-30T03:40:18.911Z,8.40
2022-08-30T03:46:26.833Z,8.18
2022-08-30T03:52:34.623Z,9.27
2022-08-30T03:58:38.676Z,8.38
2022-08-30T04:04:42.068Z,8.35
2022-08-30T04:10:46.804Z,8.80
2022-08-30T04:16:50.255Z,8.48
2022-08-30T04:22:53.849Z,9.32
2022-08-30T04:28:59.364Z,9.07
2022-08-30T04:35:03.154Z,8.52
2022-08-30T04:41:11.494Z,7.85
2022-08-30T04:47:16.252Z,10.18
2022-08-30T04:53:19.784Z,9.20
2022-08-30T04:59:23.469Z,8.40
2022-08-30T05:05:44.504Z,8.93
2022-08-30T05:11:47.858Z,7.82
2022-08-30T05:17:51.655Z,9.50
2022-08-30T05:23:57.383Z,8.60
2022-08-30T05:30:00.743Z,9.30
2022-08-30T05:36:07.419Z,8.63
2022-08-30T05:42:12.156Z,9.20
2022-08-30T05:48:20.375Z,32.15
2022-08-30T05:54:23.824Z,15.95
2022-08-30T06:00:30.368Z,11.80
2022-08-30T06:06:38.825Z,10.60
2022-08-30T06:12:42.291Z,9.88
2022-08-30T06:18:47.123Z,10.25
2022-08-30T06:24:58.286Z,10.10
2022-08-30T06:31:01.851Z,10.15
2022-08-30T06:37:06.882Z,10.23
2022-08-30T06:43:10.663Z,9.25
2022-08-30T06:49:14.070Z,10.00
2022-08-30T06:55:20.370Z,10.50
2022-08-30T07:01:24.634Z,10.20
2022-08-30T07:07:28.286Z,11.25
2022-08-30T07:13:34.464Z,10.30
2022-08-30T07:19:38.143Z,10.02
2022-08-30T07:25:42.645Z,10.43
2022-08-30T07:31:47.357Z,10.73
2022-08-30T07:37:51.045Z,10.35
2022-08-30T07:43:54.448Z,10.35
2022-08-30T07:50:01.085Z,10.82
2022-08-30T07:56:04.960Z,11.23
2022-08-30T08:02:08.445Z,10.38
2022-08-30T08:08:13.637Z,9.40
2022-08-30T08:14:17.015Z,9.75
2022-08-30T08:20:20.612Z,10.25
2022-08-30T08:26:25.790Z,9.45
2022-08-30T08:32:30.575Z,9.75
2022-08-30T08:38:34.292Z,9.90
2022-08-30T08:44:44.944Z,9.20
2022-08-30T08:51:02.899Z,9.40
2022-08-30T08:57:06.616Z,8.10
2022-08-30T09:03:12.238Z,7.32
2022-08-30T09:09:16.160Z,7.60
2022-08-30T09:15:21.099Z,7.10
2022-08-30T09:21:28.787Z,6.32
2022-08-30T09:27:34.173Z,6.50
2022-08-30T09:33:38.202Z,6.53
2022-08-30T09:39:45.164Z,5.90
2022-08-30T09:45:50.467Z,5.53
2022-08-30T09:52:01.010Z,5.57
2022-08-30T09:58:10.534Z,5.50
2022-08-30T10:04:21.072Z,5.80
2022-08-30T10:10:30.436Z,5.65
2022-08-30T10:16:42.842Z,5.20
2022-08-30T10:22:50.271Z,5.20
2022-08-30T10:29:00.104Z,5.53
2022-08-30T10:35:06.179Z,4.45
2022-08-30T10:41:15.831Z,5.55
2022-08-30T10:47:23.783Z,4.90
2022-08-30T10:53:31.525Z,5.18
2022-08-30T10:59:37.026Z,5.38
2022-08-30T11:05:54.434Z,4.30
2022-08-30T11:12:13.507Z,4.63
2022-08-30T11:18:18.829Z,5.20
2022-08-30T11:24:24.102Z,4.78
2022-08-30T11:30:45.831Z,3.55
2022-08-30T11:37:03.802Z,4.50
2022-08-30T11:43:28.159Z,4.80
2022-08-30T11:49:48.156Z,4.72
2022-08-30T11:56:08.812Z,4.78
2022-08-30T12:02:32.548Z,3.67
2022-08-30T12:08:47.620Z,4.82
2022-08-30T12:14:54.799Z,3.92
2022-08-30T12:21:01.731Z,5.20
2022-08-30T12:27:22.373Z,5.50
2022-08-30T12:33:39.486Z,5.40
2022-08-30T12:39:46.493Z,4.35
2022-08-30T12:45:58.121Z,5.65
2022-08-30T12:52:23.357Z,3.67
2022-08-30T12:58:40.929Z,7.25
2022-08-30T13:04:47.718Z,5.65
2022-08-30T13:10:54.301Z,5.72
2022-08-30T13:17:06.947Z,5.65
2022-08-30T13:23:11.778Z,4.35
2022-08-30T13:29:18.948Z,4.53
2022-08-30T13:35:22.547Z,4.60
2022-08-30T13:41:26.329Z,3.95
2022-08-30T13:47:37.190Z,4.65
2022-08-30T13:53:56.441Z,4.97
2022-08-30T14:00:00.810Z,3.28
2022-08-30T14:06:33.911Z,3.53
2022-08-30T14:18:55.670Z,4.05
2022-08-30T14:25:01.497Z,3.38
2022-08-30T14:31:05.037Z,3.58
2022-08-30T14:37:10.270Z,3.20
2022-08-30T14:43:15.117Z,3.40
2022-08-30T14:49:20.753Z,3.40
2022-08-30T14:55:24.529Z,3.10
2022-08-30T15:01:29.812Z,2.70
2022-08-30T15:07:33.264Z,2.72
2022-08-30T15:13:36.839Z,3.17
2022-08-30T15:19:43.250Z,2.88
2022-08-30T15:25:46.763Z,2.40
2022-08-30T15:31:50.456Z,2.53
2022-08-30T15:37:56.537Z,2.83
2022-08-30T15:44:00.909Z,2.42
2022-08-30T15:50:05.738Z,2.00
2022-08-30T15:56:11.498Z,2.08
2022-08-30T16:02:15.054Z,2.10
2022-08-30T16:08:20.376Z,1.90
2022-08-30T16:14:25.662Z,2.17
2022-08-30T16:20:29.175Z,2.47
2022-08-30T16:26:33.783Z,2.20
2022-08-30T16:32:39.040Z,2.10
2022-08-30T16:38:44.315Z,2.03
2022-08-30T16:44:48.327Z,1.90
2022-08-30T16:50:54.462Z,2.05
2022-08-30T16:56:58.044Z,2.35
2022-08-30T17:03:02.039Z,1.80
2022-08-30T17:09:07.395Z,1.98
2022-08-30T17:15:11.740Z,2.30
2022-08-30T17:21:15.167Z,2.10
2022-08-30T17:27:19.915Z,1.90
2022-08-30T17:33:24.865Z,1.92
2022-08-30T17:39:28.545Z,1.90
2022-08-30T17:45:33.513Z,2.25
2022-08-30T17:51:40.802Z,2.47
2022-08-30T17:57:45.318Z,1.88
2022-08-30T18:03:57.136Z,2.28
2022-08-30T18:10:05.458Z,1.98
2022-08-30T18:16:10.214Z,1.80
2022-08-30T18:22:18.004Z,2.10
2022-08-30T18:28:23.221Z,1.60
2022-08-30T18:34:26.709Z,1.80
2022-08-30T18:40:31.599Z,1.90
2022-08-30T18:46:35.092Z,2.28
2022-08-30T18:52:40.292Z,1.80
2022-08-30T18:58:45.903Z,1.98
2022-08-30T19:04:49.364Z,1.83
2022-08-30T19:10:52.736Z,1.90
2022-08-30T19:16:57.789Z,1.92
2022-08-30T19:23:09.157Z,1.38
2022-08-30T19:29:14.373Z,1.85
2022-08-30T19:35:19.657Z,2.05
2022-08-30T19:41:23.108Z,1.65
2022-08-30T19:47:27.668Z,1.73
2022-08-30T19:53:32.434Z,1.75
2022-08-30T19:59:36.491Z,1.60
2022-08-30T20:05:40.581Z,1.52
2022-08-30T20:11:45.355Z,1.67
2022-08-30T20:18:13.630Z,1.40
2022-08-30T20:24:16.019Z,1.40
2022-08-30T20:30:20.838Z,1.95
2022-08-30T20:36:24.477Z,1.80
2022-08-30T20:42:29.102Z,1.52
2022-08-30T20:48:34.135Z,1.67
2022-08-30T20:54:38.329Z,1.75
2022-08-30T21:00:45.634Z,1.88
2022-08-30T21:06:51.200Z,1.80
2022-08-30T21:12:54.804Z,1.60
2022-08-30T21:18:58.737Z,1.50
2022-08-30T21:25:03.828Z,1.50
2022-08-30T21:31:08.359Z,1.75
2022-08-30T21:37:11.809Z,1.83
2022-08-30T21:43:16.557Z,1.67
2022-08-30T21:49:21.051Z,1.50
2022-08-30T21:55:24.520Z,1.73
2022-08-30T22:01:30.719Z,1.80
2022-08-30T22:07:37.476Z,1.42
2022-08-30T22:13:42.740Z,1.50
2022-08-30T22:19:49.069Z,1.50
2022-08-30T22:25:52.850Z,1.70
2022-08-30T22:31:56.325Z,1.63
2022-08-30T22:38:01.440Z,1.80
2022-08-30T22:44:06.423Z,1.92
2022-08-30T22:50:10.218Z,2.00
2022-08-30T22:56:16.001Z,1.90
2022-08-30T23:02:19.961Z,2.13
2022-08-30T23:08:23.414Z,2.00
2022-08-30T23:14:28.557Z,1.80
2022-08-30T23:20:32.107Z,2.03
2022-08-30T23:26:53.810Z,2.20
2022-08-30T23:33:16.106Z,2.42
2022-08-30T23:39:37.108Z,2.20
2022-08-30T23:45:58.372Z,2.72
2022-08-30T23:52:20.984Z,2.20
2022-08-30T23:58:42.184Z,2.28
